sensor_id;sensor_type;location;lat;lon;timestamp;temperature;humidity
18175;DHT22;9212;50.894;16.714;2022-07-18T00:27:28;10.00;99.90
18175;DHT22;9212;50.894;16.714;2022-07-18T00:29:55;10.00;99.90
18175;DHT22;9212;50.894;16.714;2022-07-18T00:34:49;10.00;99.90
18175;DHT22;9212;50.894;16.714;2022-07-18T00:37:16;10.10;99.90
18175;DHT22;9212;50.894;16.714;2022-07-18T00:42:11;10.10;99.90
18175;DHT22;9212;50.894;16.714;2022-07-18T00:52:01;10.10;99.90
18175;DHT22;9212;50.894;16.714;2022-07-18T01:02:13;10.20;99.90
18175;DHT22;9212;50.894;16.714;2022-07-18T01:16:58;10.00;99.90
18175;DHT22;9212;50.894;16.714;2022-07-18T01:36:38;9.60;99.90
18175;DHT22;9212;50.894;16.714;2022-07-18T01:39:07;9.70;99.90
18175;DHT22;9212;50.894;16.714;2022-07-18T01:53:55;9.50;99.90
18175;DHT22;9212;50.894;16.714;2022-07-18T02:06:16;9.60;99.90
18175;DHT22;9212;50.894;16.714;2022-07-18T02:21:02;9.40;99.90
18175;DHT22;9212;50.894;16.714;2022-07-18T02:43:09;9.80;99.90
18175;DHT22;9212;50.894;16.714;2022-07-18T02:55:26;10.00;99.90
18175;DHT22;9212;50.894;16.714;2022-07-18T02:57:53;10.00;99.90
18175;DHT22;9212;50.894;16.714;2022-07-18T03:07:43;10.10;99.90
18175;DHT22;9212;50.894;16.714;2022-07-18T03:27:26;10.50;99.90
18175;DHT22;9212;50.894;16.714;2022-07-18T03:29:53;10.50;99.90
18175;DHT22;9212;50.894;16.714;2022-07-18T03:34:48;10.50;99.90
18175;DHT22;9212;50.894;16.714;2022-07-18T03:52:00;10.90;99.90
18175;DHT22;9212;50.894;16.714;2022-07-18T04:06:47;11.50;99.90
18175;DHT22;9212;50.894;16.714;2022-07-18T04:09:14;11.60;99.90
18175;DHT22;9212;50.894;16.714;2022-07-18T04:11:41;11.80;99.90
18175;DHT22;9212;50.894;16.714;2022-07-18T04:14:09;11.80;99.90
18175;DHT22;9212;50.894;16.714;2022-07-18T04:19:04;12.20;99.90
18175;DHT22;9212;50.894;16.714;2022-07-18T04:23:58;12.70;99.90
18175;DHT22;9212;50.894;16.714;2022-07-18T04:26:26;13.00;99.90
18175;DHT22;9212;50.894;16.714;2022-07-18T04:28:53;13.20;99.90
18175;DHT22;9212;50.894;16.714;2022-07-18T04:31:21;13.50;99.90
18175;DHT22;9212;50.894;16.714;2022-07-18T04:34:12;13.70;99.90
18175;DHT22;9212;50.894;16.714;2022-07-18T04:36:39;14.00;99.90
18175;DHT22;9212;50.894;16.714;2022-07-18T04:39:06;14.20;99.90
18175;DHT22;9212;50.894;16.714;2022-07-18T04:41:33;14.50;99.90
18175;DHT22;9212;50.894;16.714;2022-07-18T04:44:00;15.70;99.90
18175;DHT22;9212;50.894;16.714;2022-07-18T04:48:56;16.00;99.90
18175;DHT22;9212;50.894;16.714;2022-07-18T04:51:23;16.20;99.90
18175;DHT22;9212;50.894;16.714;2022-07-18T04:58:47;23.20;99.90
18175;DHT22;9212;50.894;16.714;2022-07-18T05:23:22;26.50;99.90
18175;DHT22;9212;50.894;16.714;2022-07-18T05:25:50;28.50;99.90
18175;DHT22;9212;50.894;16.714;2022-07-18T06:29:48;34.80;98.90
18175;DHT22;9212;50.894;16.714;2022-07-18T06:47:00;34.60;95.90
18175;DHT22;9212;50.894;16.714;2022-07-18T08:05:49;27.30;92.30
18175;DHT22;9212;50.894;16.714;2022-07-18T08:08:17;27.60;93.00
18175;DHT22;9212;50.894;16.714;2022-07-18T08:10:45;27.40;92.10
18175;DHT22;9212;50.894;16.714;2022-07-18T08:23:07;27.90;91.80
18175;DHT22;9212;50.894;16.714;2022-07-18T08:25:38;28.20;92.40
18175;DHT22;9212;50.894;16.714;2022-07-18T08:30:35;28.10;93.30
18175;DHT22;9212;50.894;16.714;2022-07-18T08:42:55;28.10;92.10
18175;DHT22;9212;50.894;16.714;2022-07-18T08:45:24;27.70;92.30
18175;DHT22;9212;50.894;16.714;2022-07-18T09:05:17;29.40;93.70
18175;DHT22;9212;50.894;16.714;2022-07-18T09:15:08;29.40;92.30
18175;DHT22;9212;50.894;16.714;2022-07-18T09:20:08;28.20;91.70
18175;DHT22;9212;50.894;16.714;2022-07-18T09:25:06;29.20;93.80
18175;DHT22;9212;50.894;16.714;2022-07-18T09:27:36;29.40;93.10
18175;DHT22;9212;50.894;16.714;2022-07-18T09:30:16;29.90;90.00
18175;DHT22;9212;50.894;16.714;2022-07-18T09:32:45;30.30;92.90
18175;DHT22;9212;50.894;16.714;2022-07-18T09:42:54;31.10;92.00
18175;DHT22;9212;50.894;16.714;2022-07-18T10:12:55;31.10;92.20
18175;DHT22;9212;50.894;16.714;2022-07-18T10:51:01;30.80;84.00
18175;DHT22;9212;50.894;16.714;2022-07-18T10:53:58;31.30;91.70
18175;DHT22;9212;50.894;16.714;2022-07-18T10:57:05;30.80;85.20
18175;DHT22;9212;50.894;16.714;2022-07-18T11:02:05;31.00;91.20
18175;DHT22;9212;50.894;16.714;2022-07-18T11:07:12;32.00;91.20
18175;DHT22;9212;50.894;16.714;2022-07-18T11:09:42;31.90;90.30
18175;DHT22;9212;50.894;16.714;2022-07-18T11:12:27;31.70;79.90
18175;DHT22;9212;50.894;16.714;2022-07-18T11:15:07;31.50;78.50
18175;DHT22;9212;50.894;16.714;2022-07-18T11:17:59;31.20;81.90
18175;DHT22;9212;50.894;16.714;2022-07-18T11:20:29;30.80;87.70
18175;DHT22;9212;50.894;16.714;2022-07-18T11:25:27;32.10;86.50
18175;DHT22;9212;50.894;16.714;2022-07-18T11:30:24;32.40;88.80
18175;DHT22;9212;50.894;16.714;2022-07-18T11:35:24;32.20;81.00
18175;DHT22;9212;50.894;16.714;2022-07-18T11:37:52;32.30;87.00
18175;DHT22;9212;50.894;16.714;2022-07-18T11:45:16;31.80;87.00
18175;DHT22;9212;50.894;16.714;2022-07-18T11:47:48;31.50;79.40
18175;DHT22;9212;50.894;16.714;2022-07-18T11:50:17;31.60;87.60
18175;DHT22;9212;50.894;16.714;2022-07-18T11:52:55;31.90;85.70
18175;DHT22;9212;50.894;16.714;2022-07-18T11:55:32;31.50;87.20
18175;DHT22;9212;50.894;16.714;2022-07-18T11:58:06;32.00;86.10
18175;DHT22;9212;50.894;16.714;2022-07-18T12:03:11;31.70;80.00
18175;DHT22;9212;50.894;16.714;2022-07-18T12:08:31;31.80;79.00
18175;DHT22;9212;50.894;16.714;2022-07-18T12:11:06;32.10;76.70
18175;DHT22;9212;50.894;16.714;2022-07-18T12:13:55;33.10;78.20
18175;DHT22;9212;50.894;16.714;2022-07-18T12:16:27;33.40;87.50
18175;DHT22;9212;50.894;16.714;2022-07-18T12:18:56;33.70;84.90
18175;DHT22;9212;50.894;16.714;2022-07-18T12:21:23;33.50;86.50
18175;DHT22;9212;50.894;16.714;2022-07-18T12:26:29;32.10;81.20
18175;DHT22;9212;50.894;16.714;2022-07-18T12:29:05;32.20;81.30
18175;DHT22;9212;50.894;16.714;2022-07-18T12:31:40;32.80;82.80
18175;DHT22;9212;50.894;16.714;2022-07-18T12:36:53;32.30;89.10
18175;DHT22;9212;50.894;16.714;2022-07-18T12:39:29;32.60;79.60
18175;DHT22;9212;50.894;16.714;2022-07-18T13:31:09;32.70;85.50
18175;DHT22;9212;50.894;16.714;2022-07-18T14:25:17;32.30;87.60
18175;DHT22;9212;50.894;16.714;2022-07-18T14:40:05;32.50;84.60
18175;DHT22;9212;50.894;16.714;2022-07-18T14:57:19;31.90;89.60
18175;DHT22;9212;50.894;16.714;2022-07-18T16:40:34;29.80;91.50
18175;DHT22;9212;50.894;16.714;2022-07-18T16:50:24;29.20;91.50
18175;DHT22;9212;50.894;16.714;2022-07-18T16:52:52;29.30;84.10
18175;DHT22;9212;50.894;16.714;2022-07-18T16:55:19;29.10;82.00
18175;DHT22;9212;50.894;16.714;2022-07-18T16:57:48;29.00;82.00
18175;DHT22;9212;50.894;16.714;2022-07-18T17:00:17;28.90;82.70
18175;DHT22;9212;50.894;16.714;2022-07-18T17:02:47;30.20;80.00
18175;DHT22;9212;50.894;16.714;2022-07-18T17:05:16;28.60;80.80
18175;DHT22;9212;50.894;16.714;2022-07-18T17:07:44;28.70;81.00
18175;DHT22;9212;50.894;16.714;2022-07-18T17:10:13;28.50;81.90
18175;DHT22;9212;50.894;16.714;2022-07-18T17:12:41;28.50;83.50
18175;DHT22;9212;50.894;16.714;2022-07-18T17:15:11;28.30;83.50
18175;DHT22;9212;50.894;16.714;2022-07-18T17:17:38;28.10;86.30
18175;DHT22;9212;50.894;16.714;2022-07-18T17:20:06;27.80;87.50
18175;DHT22;9212;50.894;16.714;2022-07-18T17:22:34;27.50;87.60
18175;DHT22;9212;50.894;16.714;2022-07-18T17:25:02;27.20;90.20
18175;DHT22;9212;50.894;16.714;2022-07-18T17:27:31;27.10;90.20
18175;DHT22;9212;50.894;16.714;2022-07-18T17:29:58;26.90;90.10
18175;DHT22;9212;50.894;16.714;2022-07-18T17:32:28;26.90;88.60
18175;DHT22;9212;50.894;16.714;2022-07-18T17:34:56;26.40;90.30
18175;DHT22;9212;50.894;16.714;2022-07-18T17:37:24;26.50;88.90
18175;DHT22;9212;50.894;16.714;2022-07-18T17:39:53;26.40;90.50
18175;DHT22;9212;50.894;16.714;2022-07-18T17:42:20;26.30;92.10
18175;DHT22;9212;50.894;16.714;2022-07-18T17:44:49;26.20;94.10
18175;DHT22;9212;50.894;16.714;2022-07-18T17:47:17;26.00;95.30
18175;DHT22;9212;50.894;16.714;2022-07-18T17:49:47;26.10;95.60
18175;DHT22;9212;50.894;16.714;2022-07-18T17:52:15;26.00;94.90
18175;DHT22;9212;50.894;16.714;2022-07-18T17:57:10;25.70;96.30
18175;DHT22;9212;50.894;16.714;2022-07-18T17:59:37;25.40;99.90
18175;DHT22;9212;50.894;16.714;2022-07-18T18:02:04;25.10;99.90
18175;DHT22;9212;50.894;16.714;2022-07-18T18:04:31;24.80;99.90
18175;DHT22;9212;50.894;16.714;2022-07-18T18:06:59;25.00;99.90
18175;DHT22;9212;50.894;16.714;2022-07-18T18:09:26;24.70;99.90
18175;DHT22;9212;50.894;16.714;2022-07-18T18:11:53;24.30;99.90
18175;DHT22;9212;50.894;16.714;2022-07-18T18:14:20;24.20;99.90
18175;DHT22;9212;50.894;16.714;2022-07-18T18:16:48;23.90;99.90
18175;DHT22;9212;50.894;16.714;2022-07-18T18:19:15;23.60;99.90
18175;DHT22;9212;50.894;16.714;2022-07-18T18:21:42;23.40;99.90
18175;DHT22;9212;50.894;16.714;2022-07-18T18:24:10;23.30;99.90
18175;DHT22;9212;50.894;16.714;2022-07-18T18:26:37;22.70;99.90
18175;DHT22;9212;50.894;16.714;2022-07-18T18:29:04;22.80;99.90
18175;DHT22;9212;50.894;16.714;2022-07-18T18:31:31;22.80;99.90
18175;DHT22;9212;50.894;16.714;2022-07-18T18:33:58;22.50;99.90
18175;DHT22;9212;50.894;16.714;2022-07-18T18:36:25;22.40;99.90
18175;DHT22;9212;50.894;16.714;2022-07-18T18:39:06;22.30;99.90
18175;DHT22;9212;50.894;16.714;2022-07-18T18:41:34;22.10;99.90
18175;DHT22;9212;50.894;16.714;2022-07-18T18:44:02;22.00;99.90
18175;DHT22;9212;50.894;16.714;2022-07-18T18:46:29;21.70;99.90
18175;DHT22;9212;50.894;16.714;2022-07-18T18:48:56;21.70;99.90
18175;DHT22;9212;50.894;16.714;2022-07-18T18:51:23;21.60;99.90
18175;DHT22;9212;50.894;16.714;2022-07-18T18:53:50;21.50;99.90
18175;DHT22;9212;50.894;16.714;2022-07-18T18:56:17;21.30;99.90
18175;DHT22;9212;50.894;16.714;2022-07-18T18:58:45;21.20;99.90
18175;DHT22;9212;50.894;16.714;2022-07-18T19:01:12;21.10;99.90
18175;DHT22;9212;50.894;16.714;2022-07-18T19:03:39;21.00;99.90
18175;DHT22;9212;50.894;16.714;2022-07-18T19:06:06;20.70;99.90
18175;DHT22;9212;50.894;16.714;2022-07-18T19:08:34;20.60;99.90
18175;DHT22;9212;50.894;16.714;2022-07-18T19:11:01;19.90;99.90
18175;DHT22;9212;50.894;16.714;2022-07-18T19:13:28;20.10;99.90
18175;DHT22;9212;50.894;16.714;2022-07-18T19:15:56;20.20;99.90
18175;DHT22;9212;50.894;16.714;2022-07-18T19:18:23;19.80;99.90
18175;DHT22;9212;50.894;16.714;2022-07-18T19:20:50;19.50;99.90
18175;DHT22;9212;50.894;16.714;2022-07-18T19:23:17;19.50;99.90
18175;DHT22;9212;50.894;16.714;2022-07-18T19:25:44;19.40;99.90
18175;DHT22;9212;50.894;16.714;2022-07-18T19:28:11;19.30;99.90
18175;DHT22;9212;50.894;16.714;2022-07-18T19:30:38;19.10;99.90
18175;DHT22;9212;50.894;16.714;2022-07-18T19:33:06;19.00;99.90
18175;DHT22;9212;50.894;16.714;2022-07-18T19:35:33;18.80;99.90
18175;DHT22;9212;50.894;16.714;2022-07-18T19:38:00;18.70;99.90
18175;DHT22;9212;50.894;16.714;2022-07-18T19:40:27;18.50;99.90
18175;DHT22;9212;50.894;16.714;2022-07-18T19:42:55;18.30;99.90
18175;DHT22;9212;50.894;16.714;2022-07-18T19:45:22;18.40;99.90
18175;DHT22;9212;50.894;16.714;2022-07-18T19:47:49;19.10;99.90
18175;DHT22;9212;50.894;16.714;2022-07-18T19:50:19;18.40;99.90
18175;DHT22;9212;50.894;16.714;2022-07-18T19:52:46;18.60;99.90
18175;DHT22;9212;50.894;16.714;2022-07-18T19:55:14;18.30;99.90
18175;DHT22;9212;50.894;16.714;2022-07-18T19:57:41;18.80;99.90
18175;DHT22;9212;50.894;16.714;2022-07-18T20:00:09;18.10;99.90
18175;DHT22;9212;50.894;16.714;2022-07-18T20:02:36;18.00;99.90
18175;DHT22;9212;50.894;16.714;2022-07-18T20:05:04;17.80;99.90
18175;DHT22;9212;50.894;16.714;2022-07-18T20:07:32;17.90;99.90
18175;DHT22;9212;50.894;16.714;2022-07-18T20:09:59;17.70;99.90
18175;DHT22;9212;50.894;16.714;2022-07-18T20:12:26;17.60;99.90
18175;DHT22;9212;50.894;16.714;2022-07-18T20:14:53;17.70;99.90
18175;DHT22;9212;50.894;16.714;2022-07-18T20:17:21;17.50;99.90
18175;DHT22;9212;50.894;16.714;2022-07-18T20:19:48;17.40;99.90
18175;DHT22;9212;50.894;16.714;2022-07-18T20:22:15;17.40;99.90
18175;DHT22;9212;50.894;16.714;2022-07-18T20:24:44;17.30;99.90
18175;DHT22;9212;50.894;16.714;2022-07-18T20:27:11;17.30;99.90
18175;DHT22;9212;50.894;16.714;2022-07-18T20:29:38;17.30;99.90
18175;DHT22;9212;50.894;16.714;2022-07-18T20:32:05;17.20;99.90
18175;DHT22;9212;50.894;16.714;2022-07-18T20:34:34;17.30;99.90
18175;DHT22;9212;50.894;16.714;2022-07-18T20:37:01;17.70;99.90
18175;DHT22;9212;50.894;16.714;2022-07-18T20:39:28;17.30;99.90
18175;DHT22;9212;50.894;16.714;2022-07-18T20:41:57;17.10;99.90
18175;DHT22;9212;50.894;16.714;2022-07-18T20:44:24;17.40;99.90
18175;DHT22;9212;50.894;16.714;2022-07-18T20:46:51;17.10;99.90
18175;DHT22;9212;50.894;16.714;2022-07-18T20:49:18;17.10;99.90
18175;DHT22;9212;50.894;16.714;2022-07-18T20:51:45;17.00;99.90
18175;DHT22;9212;50.894;16.714;2022-07-18T20:54:12;17.00;99.90
18175;DHT22;9212;50.894;16.714;2022-07-18T20:56:39;17.60;99.90
18175;DHT22;9212;50.894;16.714;2022-07-18T20:59:07;17.10;99.90
18175;DHT22;9212;50.894;16.714;2022-07-18T21:01:34;17.40;99.90
18175;DHT22;9212;50.894;16.714;2022-07-18T21:04:01;17.30;99.90
18175;DHT22;9212;50.894;16.714;2022-07-18T21:06:28;17.40;99.90
18175;DHT22;9212;50.894;16.714;2022-07-18T21:08:58;16.90;99.90
18175;DHT22;9212;50.894;16.714;2022-07-18T21:11:25;17.00;99.90
18175;DHT22;9212;50.894;16.714;2022-07-18T21:13:52;16.90;99.90
18175;DHT22;9212;50.894;16.714;2022-07-18T21:16:21;16.60;99.90
18175;DHT22;9212;50.894;16.714;2022-07-18T21:18:48;16.90;99.90
18175;DHT22;9212;50.894;16.714;2022-07-18T21:21:15;16.50;99.90
18175;DHT22;9212;50.894;16.714;2022-07-18T21:23:45;16.80;99.90
18175;DHT22;9212;50.894;16.714;2022-07-18T21:26:12;16.30;99.90
18175;DHT22;9212;50.894;16.714;2022-07-18T21:28:43;16.50;99.90
18175;DHT22;9212;50.894;16.714;2022-07-18T21:31:10;16.30;99.90
18175;DHT22;9212;50.894;16.714;2022-07-18T21:33:38;16.30;99.90
18175;DHT22;9212;50.894;16.714;2022-07-18T21:36:08;16.20;99.90
18175;DHT22;9212;50.894;16.714;2022-07-18T21:38:35;16.20;99.90
18175;DHT22;9212;50.894;16.714;2022-07-18T21:41:02;16.10;99.90
18175;DHT22;9212;50.894;16.714;2022-07-18T21:43:32;16.00;99.90
18175;DHT22;9212;50.894;16.714;2022-07-18T21:45:59;16.00;99.90
18175;DHT22;9212;50.894;16.714;2022-07-18T21:48:29;16.00;99.90
18175;DHT22;9212;50.894;16.714;2022-07-18T21:50:57;15.90;99.90
18175;DHT22;9212;50.894;16.714;2022-07-18T21:53:27;15.80;99.90
18175;DHT22;9212;50.894;16.714;2022-07-18T21:55:54;15.80;99.90
18175;DHT22;9212;50.894;16.714;2022-07-18T21:58:21;15.80;99.90
18175;DHT22;9212;50.894;16.714;2022-07-18T22:00:48;15.50;99.90
18175;DHT22;9212;50.894;16.714;2022-07-18T22:03:17;15.70;99.90
18175;DHT22;9212;50.894;16.714;2022-07-18T22:05:44;15.80;99.90
18175;DHT22;9212;50.894;16.714;2022-07-18T22:08:15;15.60;99.90
18175;DHT22;9212;50.894;16.714;2022-07-18T22:10:42;15.70;99.90
18175;DHT22;9212;50.894;16.714;2022-07-18T22:13:09;15.60;99.90
18175;DHT22;9212;50.894;16.714;2022-07-18T22:15:36;15.40;99.90
18175;DHT22;9212;50.894;16.714;2022-07-18T22:18:06;15.60;99.90
18175;DHT22;9212;50.894;16.714;2022-07-18T22:20:33;15.50;99.90
18175;DHT22;9212;50.894;16.714;2022-07-18T22:23:00;15.50;99.90
18175;DHT22;9212;50.894;16.714;2022-07-18T22:25:31;15.40;99.90
18175;DHT22;9212;50.894;16.714;2022-07-18T22:27:58;15.40;99.90
18175;DHT22;9212;50.894;16.714;2022-07-18T22:30:25;15.40;99.90
18175;DHT22;9212;50.894;16.714;2022-07-18T22:32:52;15.30;99.90
18175;DHT22;9212;50.894;16.714;2022-07-18T22:35:19;15.10;99.90
18175;DHT22;9212;50.894;16.714;2022-07-18T22:37:46;15.20;99.90
18175;DHT22;9212;50.894;16.714;2022-07-18T22:40:14;15.20;99.90
18175;DHT22;9212;50.894;16.714;2022-07-18T22:42:43;15.20;99.90
18175;DHT22;9212;50.894;16.714;2022-07-18T22:45:10;15.20;99.90
18175;DHT22;9212;50.894;16.714;2022-07-18T22:47:37;15.10;99.90
18175;DHT22;9212;50.894;16.714;2022-07-18T22:50:05;15.10;99.90
18175;DHT22;9212;50.894;16.714;2022-07-18T22:52:32;15.10;99.90
18175;DHT22;9212;50.894;16.714;2022-07-18T22:54:59;14.80;99.90
18175;DHT22;9212;50.894;16.714;2022-07-18T22:57:26;15.00;99.90
18175;DHT22;9212;50.894;16.714;2022-07-18T22:59:55;15.10;99.90
18175;DHT22;9212;50.894;16.714;2022-07-18T23:04:49;15.00;99.90
18175;DHT22;9212;50.894;16.714;2022-07-18T23:07:16;15.20;99.90
18175;DHT22;9212;50.894;16.714;2022-07-18T23:09:43;15.10;99.90
18175;DHT22;9212;50.894;16.714;2022-07-18T23:12:10;14.90;99.90
18175;DHT22;9212;50.894;16.714;2022-07-18T23:14:37;14.90;99.90
18175;DHT22;9212;50.894;16.714;2022-07-18T23:17:05;14.90;99.90
18175;DHT22;9212;50.894;16.714;2022-07-18T23:19:33;14.90;99.90
18175;DHT22;9212;50.894;16.714;2022-07-18T23:22:00;14.80;99.90
18175;DHT22;9212;50.894;16.714;2022-07-18T23:24:26;14.80;99.90
18175;DHT22;9212;50.894;16.714;2022-07-18T23:26:53;14.80;99.90
18175;DHT22;9212;50.894;16.714;2022-07-18T23:29:21;14.90;99.90
18175;DHT22;9212;50.894;16.714;2022-07-18T23:34:16;14.80;99.90
18175;DHT22;9212;50.894;16.714;2022-07-18T23:36:43;14.70;99.90
18175;DHT22;9212;50.894;16.714;2022-07-18T23:41:37;14.70;99.90
18175;DHT22;9212;50.894;16.714;2022-07-18T23:44:04;14.60;99.90
18175;DHT22;9212;50.894;16.714;2022-07-18T23:46:31;14.50;99.90
18175;DHT22;9212;50.894;16.714;2022-07-18T23:51:27;14.70;99.90
